地図

経路データ

SID SEASON NUMBER BASIN SUBBASIN NAME ISO_TIME NATURE LAT LON WMO_WIND WMO_PRES WMO_AGENCY TRACK_TYPE DIST2LAND LANDFALL IFLAG USA_AGENCY USA_ATCF_ID USA_LAT USA_LON USA_RECORD USA_STATUS USA_WIND USA_PRES USA_SSHS USA_R34_NE USA_R34_SE USA_R34_SW USA_R34_NW USA_R50_NE USA_R50_SE USA_R50_SW USA_R50_NW USA_R64_NE USA_R64_SE USA_R64_SW USA_R64_NW USA_POCI USA_ROCI USA_RMW USA_EYE TOKYO_LAT TOKYO_LON TOKYO_GRADE TOKYO_WIND TOKYO_PRES TOKYO_R50_DIR TOKYO_R50_LONG TOKYO_R50_SHORT TOKYO_R30_DIR TOKYO_R30_LONG TOKYO_R30_SHORT TOKYO_LAND CMA_LAT CMA_LON CMA_CAT CMA_WIND CMA_PRES HKO_LAT HKO_LON HKO_CAT HKO_WIND HKO_PRES NEWDELHI_LAT NEWDELHI_LON NEWDELHI_GRADE NEWDELHI_WIND NEWDELHI_PRES NEWDELHI_CI NEWDELHI_DP NEWDELHI_POCI REUNION_LAT REUNION_LON REUNION_TYPE REUNION_WIND REUNION_PRES REUNION_TNUM REUNION_CI REUNION_RMW REUNION_R34_NE REUNION_R34_SE REUNION_R34_SW REUNION_R34_NW REUNION_R50_NE REUNION_R50_SE REUNION_R50_SW REUNION_R50_NW REUNION_R64_NE REUNION_R64_SE REUNION_R64_SW REUNION_R64_NW BOM_LAT BOM_LON BOM_TYPE BOM_WIND BOM_PRES BOM_TNUM BOM_CI BOM_RMW BOM_R34_NE BOM_R34_SE BOM_R34_SW BOM_R34_NW BOM_R50_NE BOM_R50_SE BOM_R50_SW BOM_R50_NW BOM_R64_NE BOM_R64_SE BOM_R64_SW BOM_R64_NW BOM_ROCI BOM_POCI BOM_EYE BOM_POS_METHOD BOM_PRES_METHOD NADI_LAT NADI_LON NADI_CAT NADI_WIND NADI_PRES WELLINGTON_LAT WELLINGTON_LON WELLINGTON_WIND WELLINGTON_PRES DS824_LAT DS824_LON DS824_STAGE DS824_WIND DS824_PRES TD9636_LAT TD9636_LON TD9636_STAGE TD9636_WIND TD9636_PRES TD9635_LAT TD9635_LON TD9635_WIND TD9635_PRES TD9635_ROCI NEUMANN_LAT NEUMANN_LON NEUMANN_CLASS NEUMANN_WIND NEUMANN_PRES MLC_LAT MLC_LON MLC_CLASS MLC_WIND MLC_PRES USA_GUST BOM_GUST BOM_GUST_PER REUNION_GUST REUNION_GUST_PER USA_SEAHGT USA_SEARAD_NE USA_SEARAD_SE USA_SEARAD_SW USA_SEARAD_NW STORM_SPEED STORM_DIR
1927261N15088 1927 48 NI BB NOT_NAMED 1927-09-18 00:00:00 TS 15.5000 87.6000 main 485 454 _________O____ -1 15.5000 87.6000 TC 30 8 269
1927261N15088 1927 48 NI BB NOT_NAMED 1927-09-18 03:00:00 TS 15.4936 87.1600 main 454 411 _________PO___ -1 15.4904 86.9399 TC 30 15.5000 87.6000 1 10 271
1927261N15088 1927 48 NI BB NOT_NAMED 1927-09-18 06:00:00 TS 15.5103 86.5565 main 411 372 _________OP___ -1 15.5000 86.3000 TC 30 15.5258 86.9411 1 12 273
1927261N15088 1927 48 NI BB NOT_NAMED 1927-09-18 09:00:00 TS 15.5458 85.9510 main 372 324 _________PP___ -1 15.5423 85.6925 TC 30 15.5504 86.2957 1 11 274
1927261N15088 1927 48 NI BB NOT_NAMED 1927-09-18 12:00:00 TS 15.5874 85.3887 main 324 281 _________OP___ -1 15.6000 85.1000 TC 30 15.5748 85.6774 1 11 274
1927261N15088 1927 48 NI BB NOT_NAMED 1927-09-18 15:00:00 TS 15.6249 84.8000 main 281 236 _________PO___ -1 15.6498 84.5000 TC 30 15.6000 85.1000 1 11 274
1927261N15088 1927 48 NI BB NOT_NAMED 1927-09-18 18:00:00 TS 15.6642 84.2326 main 226 180 _________OP___ -1 15.7000 83.9000 TC 30 15.6284 84.5652 1 11 274
1927261N15088 1927 48 NI BB NOT_NAMED 1927-09-18 21:00:00 TS 15.7040 83.6968 main 180 123 _________PP___ -1 15.7416 83.3673 TC 30 15.6664 84.0262 1 11 275
1927261N15088 1927 48 NI BB NOT_NAMED 1927-09-19 00:00:00 TS 15.7607 83.0621 main 123 79 _________OP___ -1 15.8000 82.7000 TC 30 15.7215 83.4243 1 14 276
1927261N15088 1927 48 NI BB NOT_NAMED 1927-09-19 03:00:00 TS 15.8427 82.2087 main 74 10 _________PO___ -1 15.8853 81.7174 TC 30 15.8000 82.7000 1 18 276
1927261N15088 1927 48 NI BB NOT_NAMED 1927-09-19 06:00:00 TS 15.9482 81.1896 main 10 0 _________OP___ -1 16.0000 80.6000 TC 30 15.8964 81.7791 1 20 277
1927261N15088 1927 48 NI BB NOT_NAMED 1927-09-19 09:00:00 TS 16.0779 80.1422 main 0 0 _________PP___ -1 16.1420 79.5500 TC 30 16.0138 80.7343 1 21 278
1927261N15088 1927 48 NI BB NOT_NAMED 1927-09-19 12:00:00 TS 16.2246 79.0612 main 0 0 _________OP___ -1 16.3000 78.5000 TC 30 16.1491 79.6224 1 21 278
1927261N15088 1927 48 NI AS NOT_NAMED 1927-09-19 15:00:00 TS 16.3710 77.9749 main 0 0 _________PO___ -1 16.4420 77.4497 TC 30 16.3000 78.5000 1 21 278
1927261N15088 1927 48 NI AS NOT_NAMED 1927-09-19 18:00:00 TS 16.5348 76.8849 main 0 0 _________OP___ -1 16.6000 76.4000 TC 30 16.4696 77.3699 1 22 280
1927261N15088 1927 48 NI AS NOT_NAMED 1927-09-19 21:00:00 TS 16.7298 75.7635 main 0 0 _________PP___ -1 16.8079 75.2754 TC 30 16.6516 76.2515 1 21 281
1927261N15088 1927 48 NI AS NOT_NAMED 1927-09-20 00:00:00 TS 16.9163 74.7536 main 0 0 _________OP___ -1 17.0000 74.3000 TC 30 16.8326 75.2072 1 17 281
1927261N15088 1927 48 NI AS NOT_NAMED 1927-09-20 03:00:00 TS 17.0533 73.9873 main 0 0 _________PO___ -1 17.1065 73.6746 TC 30 17.0000 74.3000 1 13 281
1927261N15088 1927 48 NI AS NOT_NAMED 1927-09-20 06:00:00 TS 17.1662 73.3927 main 0 0 _________OP___ -1 17.2000 73.2000 TC 30 17.1325 73.5853 1 11 282
1927261N15088 1927 48 NI AS NOT_NAMED 1927-09-20 09:00:00 TS 17.2983 72.8234 main 43 43 _________PP___ -1 17.3425 72.6350 TC 30 17.2542 73.0118 1 11 285
1927261N15088 1927 48 NI AS NOT_NAMED 1927-09-20 12:00:00 TS 17.4370 72.3162 main 87 85 _________OP___ -1 17.5000 72.1000 TC 30 17.3739 72.5323 1 10 287
1927261N15088 1927 48 NI AS NOT_NAMED 1927-09-20 15:00:00 TS 17.5749 71.8637 main 124 124 _________PO___ -1 17.6498 71.6274 TC 30 17.5000 72.1000 1 9 288
1927261N15088 1927 48 NI AS NOT_NAMED 1927-09-20 18:00:00 TS 17.7192 71.4093 main 168 168 _________OP___ -1 17.8000 71.2000 TC 30 17.6383 71.6186 1 9 289
1927261N15088 1927 48 NI AS NOT_NAMED 1927-09-20 21:00:00 TS 17.8672 70.9762 main 203 203 _________PP___ -1 17.9500 70.7775 TC 30 17.7845 71.1748 1 8 291
1927261N15088 1927 48 NI AS NOT_NAMED 1927-09-21 00:00:00 TS 18.0192 70.5843 main 244 244 _________OP___ -1 18.1000 70.4000 TC 30 17.9385 70.7686 1 8 294
1927261N15088 1927 48 NI AS NOT_NAMED 1927-09-21 03:00:00 TS 18.1712 70.2424 main 285 278 _________PO___ -1 18.2424 70.0849 TC 30 18.1000 70.4000 1 7 297
1927261N15088 1927 48 NI AS NOT_NAMED 1927-09-21 06:00:00 TS 18.3338 69.9218 main 284 271 _________OP___ -1 18.4000 69.8000 TC 30 18.2675 70.0437 1 7 300
1927261N15088 1927 48 NI AS NOT_NAMED 1927-09-21 09:00:00 TS 18.5211 69.6050 main 276 266 _________PP___ -1 18.6000 69.4851 TC 30 18.4422 69.7249 1 7 303
1927261N15088 1927 48 NI AS NOT_NAMED 1927-09-21 12:00:00 TS 18.7104 69.3218 main 273 264 _________OP___ -1 18.8000 69.2000 TC 30 18.6208 69.4437 1 6 306
1927261N15088 1927 48 NI AS NOT_NAMED 1927-09-21 15:00:00 TS 18.8750 69.0887 main 267 264 _________PO___ -1 18.9499 68.9774 TC 30 18.8000 69.2000 1 5 308
1927261N15088 1927 48 NI AS NOT_NAMED 1927-09-21 18:00:00 TS 19.0251 68.9003 main 270 257 _________OP___ -1 19.1000 68.8000 TC 30 18.9503 69.0006 1 5 314
1927261N15088 1927 48 NI AS NOT_NAMED 1927-09-21 21:00:00 TS 19.1910 68.7457 main 263 252 _________PP___ -1 19.2774 68.6573 TC 30 19.1045 68.8341 1 5 321
1927261N15088 1927 48 NI AS NOT_NAMED 1927-09-22 00:00:00 TS 19.3908 68.5878 main 252 251 _________OP___ -1 19.5000 68.5000 TC 30 19.2815 68.6755 1 6 323
1927261N15088 1927 48 NI AS NOT_NAMED 1927-09-22 03:00:00 TS 19.6388 68.3825 main 251 243 _________PO___ -1 19.7775 68.2650 TC 30 19.5000 68.5000 1 7 321
1927261N15088 1927 48 NI AS NOT_NAMED 1927-09-22 06:00:00 TS 19.9411 68.1219 main 251 235 _________OP___ -1 20.1000 68.0000 TC 30 19.7821 68.2437 1 8 322
1927261N15088 1927 48 NI AS NOT_NAMED 1927-09-22 09:00:00 TS 20.2777 67.8492 main 243 232 _________PP___ -1 20.4500 67.7276 TC 30 20.1054 67.9709 1 8 325
1927261N15088 1927 48 NI AS NOT_NAMED 1927-09-22 12:00:00 TS 20.6255 67.6062 main 232 213 _________OP___ -1 20.8000 67.5000 TC 30 20.4509 67.7125 1 8 330
1927261N15088 1927 48 NI AS NOT_NAMED 1927-09-22 15:00:00 TS 20.9500 67.4349 main 220 197 _________PO___ -1 21.0999 67.3698 TC 30 20.8000 67.5000 1 7 338
1927261N15088 1927 48 NI AS NOT_NAMED 1927-09-22 18:00:00 TS 21.2502 67.3324 main 199 182 _________OP___ -1 21.4000 67.3000 TC 30 21.1379 67.3567 1 6 345
1927261N15088 1927 48 NI AS NOT_NAMED 1927-09-22 21:00:00 TS 21.5738 67.2621 main 182 180 _________PP___ -1 21.7375 67.2476 TC 30 21.4647 67.2718 1 7 351
1927261N15088 1927 48 NI AS NOT_NAMED 1927-09-23 00:00:00 TS 21.8895 67.2174 main 180 176 _________OP___ -1 22.1000 67.2000 TC 30 21.7842 67.2261 1 5 354
1927261N15088 1927 48 NI AS NOT_NAMED 1927-09-23 03:00:00 NR 22.1000 67.2000 main 176 __________O___ -1 TC 22.1000 67.2000 1 4 0

IBTrACS Databaseについて

本データベースは、米国NOAAが公開する1842年以降の世界の熱帯低気圧のベストトラックデータアーカイブInternational Best Track Archive for Climate Stewardship (IBTrACS)を、ウェブで閲覧しやすい形式に変換したものです。

最終更新日:2021-12-03